sensor_id;sensor_type;location;lat;lon;timestamp;P1;P2;P0
61592;PMS5003;70568;51.378;-1.342;2023-08-12T00:01:22;7;7;
61592;PMS5003;70568;51.378;-1.342;2023-08-12T00:03:48;5;4;
61592;PMS5003;70568;51.378;-1.342;2023-08-12T00:06:15;6;4;
61592;PMS5003;70568;51.378;-1.342;2023-08-12T00:08:41;5;5;
61592;PMS5003;70568;51.378;-1.342;2023-08-12T00:11:08;6;5;
61592;PMS5003;70568;51.378;-1.342;2023-08-12T00:13:35;6;6;
61592;PMS5003;70568;51.378;-1.342;2023-08-12T00:16:01;8;7;
61592;PMS5003;70568;51.378;-1.342;2023-08-12T00:18:28;3;3;
61592;PMS5003;70568;51.378;-1.342;2023-08-12T00:20:55;5;4;
61592;PMS5003;70568;51.378;-1.342;2023-08-12T00:23:22;7;7;
61592;PMS5003;70568;51.378;-1.342;2023-08-12T00:25:49;7;6;
61592;PMS5003;70568;51.378;-1.342;2023-08-12T00:28:15;5;4;
61592;PMS5003;70568;51.378;-1.342;2023-08-12T00:30:42;5;5;
61592;PMS5003;70568;51.378;-1.342;2023-08-12T00:33:08;5;4;
61592;PMS5003;70568;51.378;-1.342;2023-08-12T00:35:35;8;8;
61592;PMS5003;70568;51.378;-1.342;2023-08-12T00:38:02;6;6;
61592;PMS5003;70568;51.378;-1.342;2023-08-12T00:40:30;9;7;
61592;PMS5003;70568;51.378;-1.342;2023-08-12T00:42:57;6;5;
61592;PMS5003;70568;51.378;-1.342;2023-08-12T00:45:24;7;6;
61592;PMS5003;70568;51.378;-1.342;2023-08-12T00:47:51;7;7;
61592;PMS5003;70568;51.378;-1.342;2023-08-12T00:50:17;7;5;
61592;PMS5003;70568;51.378;-1.342;2023-08-12T00:52:44;8;7;
61592;PMS5003;70568;51.378;-1.342;2023-08-12T00:55:10;6;5;
61592;PMS5003;70568;51.378;-1.342;2023-08-12T00:57:37;6;6;
61592;PMS5003;70568;51.378;-1.342;2023-08-12T01:00:04;6;5;
61592;PMS5003;70568;51.378;-1.342;2023-08-12T01:02:32;5;5;
61592;PMS5003;70568;51.378;-1.342;2023-08-12T01:04:59;10;6;
61592;PMS5003;70568;51.378;-1.342;2023-08-12T01:07:26;9;7;
61592;PMS5003;70568;51.378;-1.342;2023-08-12T01:09:53;5;5;
61592;PMS5003;70568;51.378;-1.342;2023-08-12T01:12:21;9;5;
61592;PMS5003;70568;51.378;-1.342;2023-08-12T01:14:56;7;7;
61592;PMS5003;70568;51.378;-1.342;2023-08-12T01:17:28;8;7;
61592;PMS5003;70568;51.378;-1.342;2023-08-12T01:19:57;10;9;
61592;PMS5003;70568;51.378;-1.342;2023-08-12T01:22:26;9;8;
61592;PMS5003;70568;51.378;-1.342;2023-08-12T01:24:56;8;8;
61592;PMS5003;70568;51.378;-1.342;2023-08-12T01:27:23;8;6;
61592;PMS5003;70568;51.378;-1.342;2023-08-12T01:29:50;12;11;
61592;PMS5003;70568;51.378;-1.342;2023-08-12T01:32:20;8;7;
61592;PMS5003;70568;51.378;-1.342;2023-08-12T01:34:53;10;9;
61592;PMS5003;70568;51.378;-1.342;2023-08-12T01:37:28;8;7;
61592;PMS5003;70568;51.378;-1.342;2023-08-12T01:39:57;8;6;
61592;PMS5003;70568;51.378;-1.342;2023-08-12T01:42:28;9;7;
61592;PMS5003;70568;51.378;-1.342;2023-08-12T01:44:55;8;5;
61592;PMS5003;70568;51.378;-1.342;2023-08-12T01:47:22;5;5;
61592;PMS5003;70568;51.378;-1.342;2023-08-12T01:49:49;7;6;
61592;PMS5003;70568;51.378;-1.342;2023-08-12T01:52:16;8;6;
61592;PMS5003;70568;51.378;-1.342;2023-08-12T01:54:42;8;7;
61592;PMS5003;70568;51.378;-1.342;2023-08-12T01:57:09;9;6;
61592;PMS5003;70568;51.378;-1.342;2023-08-12T01:59:37;10;7;
61592;PMS5003;70568;51.378;-1.342;2023-08-12T02:02:04;11;9;
61592;PMS5003;70568;51.378;-1.342;2023-08-12T02:04:31;9;8;
61592;PMS5003;70568;51.378;-1.342;2023-08-12T02:06:58;8;8;
61592;PMS5003;70568;51.378;-1.342;2023-08-12T02:09:24;8;7;
61592;PMS5003;70568;51.378;-1.342;2023-08-12T02:11:51;9;8;
61592;PMS5003;70568;51.378;-1.342;2023-08-12T02:14:18;7;6;
61592;PMS5003;70568;51.378;-1.342;2023-08-12T02:16:45;13;10;
61592;PMS5003;70568;51.378;-1.342;2023-08-12T02:19:11;5;5;
61592;PMS5003;70568;51.378;-1.342;2023-08-12T02:21:38;10;7;
61592;PMS5003;70568;51.378;-1.342;2023-08-12T02:24:05;10;8;
61592;PMS5003;70568;51.378;-1.342;2023-08-12T02:26:32;11;9;
61592;PMS5003;70568;51.378;-1.342;2023-08-12T02:28:59;12;10;
61592;PMS5003;70568;51.378;-1.342;2023-08-12T02:31:26;11;8;
61592;PMS5003;70568;51.378;-1.342;2023-08-12T02:33:54;14;11;
61592;PMS5003;70568;51.378;-1.342;2023-08-12T02:36:21;9;8;
61592;PMS5003;70568;51.378;-1.342;2023-08-12T02:38:47;9;6;
61592;PMS5003;70568;51.378;-1.342;2023-08-12T02:41:13;11;9;
61592;PMS5003;70568;51.378;-1.342;2023-08-12T02:43:40;13;13;
61592;PMS5003;70568;51.378;-1.342;2023-08-12T02:46:06;8;7;
61592;PMS5003;70568;51.378;-1.342;2023-08-12T02:48:33;7;7;
61592;PMS5003;70568;51.378;-1.342;2023-08-12T02:50:59;9;7;
61592;PMS5003;70568;51.378;-1.342;2023-08-12T02:53:27;10;8;
61592;PMS5003;70568;51.378;-1.342;2023-08-12T02:55:54;10;9;
61592;PMS5003;70568;51.378;-1.342;2023-08-12T02:58:20;12;9;
61592;PMS5003;70568;51.378;-1.342;2023-08-12T03:00:47;8;7;
61592;PMS5003;70568;51.378;-1.342;2023-08-12T03:03:14;9;7;
61592;PMS5003;70568;51.378;-1.342;2023-08-12T03:05:40;8;7;
61592;PMS5003;70568;51.378;-1.342;2023-08-12T03:08:07;8;8;
61592;PMS5003;70568;51.378;-1.342;2023-08-12T03:10:34;6;6;
61592;PMS5003;70568;51.378;-1.342;2023-08-12T03:13:03;9;8;
61592;PMS5003;70568;51.378;-1.342;2023-08-12T03:15:29;8;8;
61592;PMS5003;70568;51.378;-1.342;2023-08-12T03:17:56;9;8;
61592;PMS5003;70568;51.378;-1.342;2023-08-12T03:20:23;11;10;
61592;PMS5003;70568;51.378;-1.342;2023-08-12T03:22:50;8;7;
61592;PMS5003;70568;51.378;-1.342;2023-08-12T03:25:17;11;9;
61592;PMS5003;70568;51.378;-1.342;2023-08-12T03:27:44;11;11;
61592;PMS5003;70568;51.378;-1.342;2023-08-12T03:30:11;9;9;
61592;PMS5003;70568;51.378;-1.342;2023-08-12T03:32:38;9;8;
61592;PMS5003;70568;51.378;-1.342;2023-08-12T03:35:05;9;8;
61592;PMS5003;70568;51.378;-1.342;2023-08-12T03:37:32;11;10;
61592;PMS5003;70568;51.378;-1.342;2023-08-12T03:39:58;9;9;
61592;PMS5003;70568;51.378;-1.342;2023-08-12T03:42:26;8;8;
61592;PMS5003;70568;51.378;-1.342;2023-08-12T03:44:54;12;10;
61592;PMS5003;70568;51.378;-1.342;2023-08-12T03:47:21;10;9;
61592;PMS5003;70568;51.378;-1.342;2023-08-12T03:49:47;13;10;
61592;PMS5003;70568;51.378;-1.342;2023-08-12T03:52:14;14;11;
61592;PMS5003;70568;51.378;-1.342;2023-08-12T03:54:41;10;9;
61592;PMS5003;70568;51.378;-1.342;2023-08-12T03:57:08;17;12;
61592;PMS5003;70568;51.378;-1.342;2023-08-12T03:59:34;16;12;
61592;PMS5003;70568;51.378;-1.342;2023-08-12T04:02:02;13;12;
61592;PMS5003;70568;51.378;-1.342;2023-08-12T04:04:29;9;8;
61592;PMS5003;70568;51.378;-1.342;2023-08-12T04:06:56;16;13;
61592;PMS5003;70568;51.378;-1.342;2023-08-12T04:09:23;10;9;
61592;PMS5003;70568;51.378;-1.342;2023-08-12T04:11:50;7;7;
61592;PMS5003;70568;51.378;-1.342;2023-08-12T04:14:18;10;8;
61592;PMS5003;70568;51.378;-1.342;2023-08-12T04:16:45;6;5;
61592;PMS5003;70568;51.378;-1.342;2023-08-12T04:19:11;9;9;
61592;PMS5003;70568;51.378;-1.342;2023-08-12T04:21:37;9;8;
61592;PMS5003;70568;51.378;-1.342;2023-08-12T04:24:04;8;8;
61592;PMS5003;70568;51.378;-1.342;2023-08-12T04:26:32;12;10;
61592;PMS5003;70568;51.378;-1.342;2023-08-12T04:28:59;11;10;
61592;PMS5003;70568;51.378;-1.342;2023-08-12T04:31:25;8;8;
61592;PMS5003;70568;51.378;-1.342;2023-08-12T04:33:53;11;10;
61592;PMS5003;70568;51.378;-1.342;2023-08-12T04:36:19;10;9;
61592;PMS5003;70568;51.378;-1.342;2023-08-12T04:38:46;9;8;
61592;PMS5003;70568;51.378;-1.342;2023-08-12T04:41:12;12;9;
61592;PMS5003;70568;51.378;-1.342;2023-08-12T04:43:39;9;8;
61592;PMS5003;70568;51.378;-1.342;2023-08-12T04:46:06;10;9;
61592;PMS5003;70568;51.378;-1.342;2023-08-12T04:48:33;9;9;
61592;PMS5003;70568;51.378;-1.342;2023-08-12T04:50:59;9;8;
61592;PMS5003;70568;51.378;-1.342;2023-08-12T04:53:26;17;13;
61592;PMS5003;70568;51.378;-1.342;2023-08-12T04:55:54;10;7;
61592;PMS5003;70568;51.378;-1.342;2023-08-12T04:58:21;14;14;
61592;PMS5003;70568;51.378;-1.342;2023-08-12T05:00:47;9;8;
61592;PMS5003;70568;51.378;-1.342;2023-08-12T05:03:14;9;9;
61592;PMS5003;70568;51.378;-1.342;2023-08-12T05:05:41;13;10;
61592;PMS5003;70568;51.378;-1.342;2023-08-12T05:08:08;12;10;
61592;PMS5003;70568;51.378;-1.342;2023-08-12T05:10:35;10;8;
61592;PMS5003;70568;51.378;-1.342;2023-08-12T05:13:02;12;10;
61592;PMS5003;70568;51.378;-1.342;2023-08-12T05:15:29;8;8;
61592;PMS5003;70568;51.378;-1.342;2023-08-12T05:17:55;14;11;
61592;PMS5003;70568;51.378;-1.342;2023-08-12T05:20:22;13;9;
61592;PMS5003;70568;51.378;-1.342;2023-08-12T05:22:49;14;9;
61592;PMS5003;70568;51.378;-1.342;2023-08-12T05:25:15;13;10;
61592;PMS5003;70568;51.378;-1.342;2023-08-12T05:27:42;10;9;
61592;PMS5003;70568;51.378;-1.342;2023-08-12T05:30:09;11;10;
61592;PMS5003;70568;51.378;-1.342;2023-08-12T05:32:35;11;11;
61592;PMS5003;70568;51.378;-1.342;2023-08-12T05:35:02;12;10;
61592;PMS5003;70568;51.378;-1.342;2023-08-12T05:37:29;12;9;
61592;PMS5003;70568;51.378;-1.342;2023-08-12T05:39:55;9;9;
61592;PMS5003;70568;51.378;-1.342;2023-08-12T05:42:22;11;9;
61592;PMS5003;70568;51.378;-1.342;2023-08-12T05:44:49;12;10;
61592;PMS5003;70568;51.378;-1.342;2023-08-12T05:47:15;11;10;
61592;PMS5003;70568;51.378;-1.342;2023-08-12T05:49:42;13;12;
61592;PMS5003;70568;51.378;-1.342;2023-08-12T05:52:09;15;12;
61592;PMS5003;70568;51.378;-1.342;2023-08-12T05:54:36;9;8;
61592;PMS5003;70568;51.378;-1.342;2023-08-12T05:57:02;9;9;
61592;PMS5003;70568;51.378;-1.342;2023-08-12T05:59:29;11;11;
61592;PMS5003;70568;51.378;-1.342;2023-08-12T06:01:56;14;9;
61592;PMS5003;70568;51.378;-1.342;2023-08-12T06:04:22;16;14;
61592;PMS5003;70568;51.378;-1.342;2023-08-12T06:06:49;11;11;
61592;PMS5003;70568;51.378;-1.342;2023-08-12T06:09:16;11;11;
61592;PMS5003;70568;51.378;-1.342;2023-08-12T06:11:43;11;8;
61592;PMS5003;70568;51.378;-1.342;2023-08-12T06:14:10;12;8;
61592;PMS5003;70568;51.378;-1.342;2023-08-12T06:16:36;14;13;
61592;PMS5003;70568;51.378;-1.342;2023-08-12T06:19:03;8;7;
61592;PMS5003;70568;51.378;-1.342;2023-08-12T06:21:30;9;9;
61592;PMS5003;70568;51.378;-1.342;2023-08-12T06:23:58;14;11;
61592;PMS5003;70568;51.378;-1.342;2023-08-12T06:26:24;11;7;
61592;PMS5003;70568;51.378;-1.342;2023-08-12T06:28:51;12;11;
61592;PMS5003;70568;51.378;-1.342;2023-08-12T06:31:18;16;13;
61592;PMS5003;70568;51.378;-1.342;2023-08-12T06:33:44;11;9;
61592;PMS5003;70568;51.378;-1.342;2023-08-12T06:36:11;10;8;
61592;PMS5003;70568;51.378;-1.342;2023-08-12T06:38:38;12;10;
61592;PMS5003;70568;51.378;-1.342;2023-08-12T06:41:04;10;9;
61592;PMS5003;70568;51.378;-1.342;2023-08-12T06:43:32;12;8;
61592;PMS5003;70568;51.378;-1.342;2023-08-12T06:45:58;6;6;
61592;PMS5003;70568;51.378;-1.342;2023-08-12T06:48:24;10;8;
61592;PMS5003;70568;51.378;-1.342;2023-08-12T06:50:53;10;10;
61592;PMS5003;70568;51.378;-1.342;2023-08-12T06:53:20;12;10;
61592;PMS5003;70568;51.378;-1.342;2023-08-12T06:55:47;9;8;
61592;PMS5003;70568;51.378;-1.342;2023-08-12T06:58:14;8;8;
61592;PMS5003;70568;51.378;-1.342;2023-08-12T07:00:41;9;7;
61592;PMS5003;70568;51.378;-1.342;2023-08-12T07:03:08;13;12;
61592;PMS5003;70568;51.378;-1.342;2023-08-12T07:05:35;11;10;
61592;PMS5003;70568;51.378;-1.342;2023-08-12T07:08:03;14;10;
61592;PMS5003;70568;51.378;-1.342;2023-08-12T07:10:30;11;8;
61592;PMS5003;70568;51.378;-1.342;2023-08-12T07:12:57;10;9;
61592;PMS5003;70568;51.378;-1.342;2023-08-12T07:15:24;12;9;
61592;PMS5003;70568;51.378;-1.342;2023-08-12T07:17:51;8;7;
61592;PMS5003;70568;51.378;-1.342;2023-08-12T07:20:18;9;6;
61592;PMS5003;70568;51.378;-1.342;2023-08-12T07:22:44;11;9;
61592;PMS5003;70568;51.378;-1.342;2023-08-12T07:25:11;15;11;
61592;PMS5003;70568;51.378;-1.342;2023-08-12T07:27:37;13;11;
61592;PMS5003;70568;51.378;-1.342;2023-08-12T07:30:05;7;6;
61592;PMS5003;70568;51.378;-1.342;2023-08-12T07:32:32;8;7;
61592;PMS5003;70568;51.378;-1.342;2023-08-12T07:34:59;6;5;
61592;PMS5003;70568;51.378;-1.342;2023-08-12T07:37:26;10;7;
61592;PMS5003;70568;51.378;-1.342;2023-08-12T07:39:53;8;7;
61592;PMS5003;70568;51.378;-1.342;2023-08-12T07:42:19;8;7;
61592;PMS5003;70568;51.378;-1.342;2023-08-12T07:44:46;10;8;
61592;PMS5003;70568;51.378;-1.342;2023-08-12T07:47:13;10;10;
61592;PMS5003;70568;51.378;-1.342;2023-08-12T07:49:40;9;9;
61592;PMS5003;70568;51.378;-1.342;2023-08-12T07:52:07;9;9;
61592;PMS5003;70568;51.378;-1.342;2023-08-12T07:54:35;11;9;
61592;PMS5003;70568;51.378;-1.342;2023-08-12T07:57:02;11;9;
61592;PMS5003;70568;51.378;-1.342;2023-08-12T07:59:29;11;9;
61592;PMS5003;70568;51.378;-1.342;2023-08-12T08:01:56;9;7;
61592;PMS5003;70568;51.378;-1.342;2023-08-12T08:04:23;10;8;
61592;PMS5003;70568;51.378;-1.342;2023-08-12T08:06:50;3;3;
61592;PMS5003;70568;51.378;-1.342;2023-08-12T08:09:17;8;7;
61592;PMS5003;70568;51.378;-1.342;2023-08-12T08:11:43;9;7;
61592;PMS5003;70568;51.378;-1.342;2023-08-12T08:14:09;7;7;
61592;PMS5003;70568;51.378;-1.342;2023-08-12T08:16:36;7;5;
61592;PMS5003;70568;51.378;-1.342;2023-08-12T08:19:02;6;5;
61592;PMS5003;70568;51.378;-1.342;2023-08-12T08:21:29;7;7;
61592;PMS5003;70568;51.378;-1.342;2023-08-12T08:23:55;11;7;
61592;PMS5003;70568;51.378;-1.342;2023-08-12T08:26:22;9;8;
61592;PMS5003;70568;51.378;-1.342;2023-08-12T08:28:48;7;5;
61592;PMS5003;70568;51.378;-1.342;2023-08-12T08:31:16;5;5;
61592;PMS5003;70568;51.378;-1.342;2023-08-12T08:33:43;8;6;
61592;PMS5003;70568;51.378;-1.342;2023-08-12T08:36:10;9;8;
61592;PMS5003;70568;51.378;-1.342;2023-08-12T08:38:37;8;7;
61592;PMS5003;70568;51.378;-1.342;2023-08-12T08:41:04;8;6;
61592;PMS5003;70568;51.378;-1.342;2023-08-12T08:43:35;8;6;
61592;PMS5003;70568;51.378;-1.342;2023-08-12T08:46:03;10;7;
61592;PMS5003;70568;51.378;-1.342;2023-08-12T08:48:32;7;7;
61592;PMS5003;70568;51.378;-1.342;2023-08-12T08:51:00;6;6;
61592;PMS5003;70568;51.378;-1.342;2023-08-12T08:53:29;8;8;
61592;PMS5003;70568;51.378;-1.342;2023-08-12T08:55:56;7;6;
61592;PMS5003;70568;51.378;-1.342;2023-08-12T08:58:24;8;7;
61592;PMS5003;70568;51.378;-1.342;2023-08-12T09:00:51;6;6;
61592;PMS5003;70568;51.378;-1.342;2023-08-12T09:03:18;8;6;
61592;PMS5003;70568;51.378;-1.342;2023-08-12T09:05:46;9;8;
61592;PMS5003;70568;51.378;-1.342;2023-08-12T09:08:13;11;8;
61592;PMS5003;70568;51.378;-1.342;2023-08-12T09:10:40;9;7;
61592;PMS5003;70568;51.378;-1.342;2023-08-12T09:13:08;11;7;
61592;PMS5003;70568;51.378;-1.342;2023-08-12T09:15:35;9;7;
61592;PMS5003;70568;51.378;-1.342;2023-08-12T09:18:04;8;7;
61592;PMS5003;70568;51.378;-1.342;2023-08-12T09:20:30;7;7;
61592;PMS5003;70568;51.378;-1.342;2023-08-12T09:22:58;11;10;
61592;PMS5003;70568;51.378;-1.342;2023-08-12T09:25:25;6;6;
61592;PMS5003;70568;51.378;-1.342;2023-08-12T09:27:53;10;8;
61592;PMS5003;70568;51.378;-1.342;2023-08-12T09:30:20;6;6;
61592;PMS5003;70568;51.378;-1.342;2023-08-12T09:32:54;10;8;
61592;PMS5003;70568;51.378;-1.342;2023-08-12T09:35:30;9;7;
61592;PMS5003;70568;51.378;-1.342;2023-08-12T09:38:00;10;7;
61592;PMS5003;70568;51.378;-1.342;2023-08-12T09:40:29;10;7;
61592;PMS5003;70568;51.378;-1.342;2023-08-12T09:42:57;6;5;
61592;PMS5003;70568;51.378;-1.342;2023-08-12T09:45:25;10;6;
61592;PMS5003;70568;51.378;-1.342;2023-08-12T09:47:52;10;9;
61592;PMS5003;70568;51.378;-1.342;2023-08-12T09:50:20;8;6;
61592;PMS5003;70568;51.378;-1.342;2023-08-12T09:52:48;8;7;
61592;PMS5003;70568;51.378;-1.342;2023-08-12T09:55:15;7;5;
61592;PMS5003;70568;51.378;-1.342;2023-08-12T09:57:44;6;4;
61592;PMS5003;70568;51.378;-1.342;2023-08-12T10:00:15;6;5;
61592;PMS5003;70568;51.378;-1.342;2023-08-12T10:02:43;9;4;
61592;PMS5003;70568;51.378;-1.342;2023-08-12T10:05:11;5;3;
61592;PMS5003;70568;51.378;-1.342;2023-08-12T10:07:42;5;4;
61592;PMS5003;70568;51.378;-1.342;2023-08-12T10:10:12;5;5;
61592;PMS5003;70568;51.378;-1.342;2023-08-12T10:12:40;3;3;
61592;PMS5003;70568;51.378;-1.342;2023-08-12T10:15:09;7;5;
61592;PMS5003;70568;51.378;-1.342;2023-08-12T10:17:37;9;6;
61592;PMS5003;70568;51.378;-1.342;2023-08-12T10:20:05;5;5;
61592;PMS5003;70568;51.378;-1.342;2023-08-12T10:22:34;7;5;
61592;PMS5003;70568;51.378;-1.342;2023-08-12T10:25:02;5;3;
61592;PMS5003;70568;51.378;-1.342;2023-08-12T10:27:30;9;8;
61592;PMS5003;70568;51.378;-1.342;2023-08-12T10:29:57;7;7;
61592;PMS5003;70568;51.378;-1.342;2023-08-12T10:32:24;7;6;
61592;PMS5003;70568;51.378;-1.342;2023-08-12T10:34:53;5;5;
61592;PMS5003;70568;51.378;-1.342;2023-08-12T10:37:20;4;4;
61592;PMS5003;70568;51.378;-1.342;2023-08-12T10:39:49;6;6;
61592;PMS5003;70568;51.378;-1.342;2023-08-12T10:42:31;6;5;
61592;PMS5003;70568;51.378;-1.342;2023-08-12T10:45:06;6;4;
61592;PMS5003;70568;51.378;-1.342;2023-08-12T10:47:33;7;5;
61592;PMS5003;70568;51.378;-1.342;2023-08-12T10:50:05;5;5;
61592;PMS5003;70568;51.378;-1.342;2023-08-12T10:52:33;4;4;
61592;PMS5003;70568;51.378;-1.342;2023-08-12T10:55:15;6;5;
61592;PMS5003;70568;51.378;-1.342;2023-08-12T10:57:42;7;6;
61592;PMS5003;70568;51.378;-1.342;2023-08-12T11:00:10;6;5;
61592;PMS5003;70568;51.378;-1.342;2023-08-12T11:02:40;4;3;
61592;PMS5003;70568;51.378;-1.342;2023-08-12T11:05:12;4;4;
61592;PMS5003;70568;51.378;-1.342;2023-08-12T11:07:40;3;3;
61592;PMS5003;70568;51.378;-1.342;2023-08-12T11:10:11;3;3;
61592;PMS5003;70568;51.378;-1.342;2023-08-12T11:12:40;3;3;
61592;PMS5003;70568;51.378;-1.342;2023-08-12T11:15:09;5;4;
61592;PMS5003;70568;51.378;-1.342;2023-08-12T11:17:37;5;4;
61592;PMS5003;70568;51.378;-1.342;2023-08-12T11:20:06;5;4;
61592;PMS5003;70568;51.378;-1.342;2023-08-12T11:22:35;9;7;
61592;PMS5003;70568;51.378;-1.342;2023-08-12T11:25:03;4;2;
61592;PMS5003;70568;51.378;-1.342;2023-08-12T11:27:35;6;6;
61592;PMS5003;70568;51.378;-1.342;2023-08-12T11:30:04;4;3;
61592;PMS5003;70568;51.378;-1.342;2023-08-12T11:32:31;7;6;
61592;PMS5003;70568;51.378;-1.342;2023-08-12T11:34:59;4;3;
61592;PMS5003;70568;51.378;-1.342;2023-08-12T11:37:26;4;4;
61592;PMS5003;70568;51.378;-1.342;2023-08-12T11:39:53;2;2;
61592;PMS5003;70568;51.378;-1.342;2023-08-12T11:42:20;4;3;
61592;PMS5003;70568;51.378;-1.342;2023-08-12T11:44:47;4;4;
61592;PMS5003;70568;51.378;-1.342;2023-08-12T11:47:14;3;3;
61592;PMS5003;70568;51.378;-1.342;2023-08-12T11:49:40;5;5;
61592;PMS5003;70568;51.378;-1.342;2023-08-12T11:52:08;6;4;
61592;PMS5003;70568;51.378;-1.342;2023-08-12T11:54:36;6;5;
61592;PMS5003;70568;51.378;-1.342;2023-08-12T11:57:04;5;5;
61592;PMS5003;70568;51.378;-1.342;2023-08-12T11:59:31;5;4;
61592;PMS5003;70568;51.378;-1.342;2023-08-12T12:02:01;6;6;
61592;PMS5003;70568;51.378;-1.342;2023-08-12T12:04:30;6;4;
61592;PMS5003;70568;51.378;-1.342;2023-08-12T12:06:56;5;5;
61592;PMS5003;70568;51.378;-1.342;2023-08-12T12:09:23;4;4;
61592;PMS5003;70568;51.378;-1.342;2023-08-12T12:11:51;5;4;
61592;PMS5003;70568;51.378;-1.342;2023-08-12T12:14:20;7;6;
61592;PMS5003;70568;51.378;-1.342;2023-08-12T12:16:48;5;4;
61592;PMS5003;70568;51.378;-1.342;2023-08-12T12:19:16;4;3;
61592;PMS5003;70568;51.378;-1.342;2023-08-12T12:21:45;4;3;
61592;PMS5003;70568;51.378;-1.342;2023-08-12T12:24:13;6;6;
61592;PMS5003;70568;51.378;-1.342;2023-08-12T12:26:40;5;4;
61592;PMS5003;70568;51.378;-1.342;2023-08-12T12:29:07;4;3;
61592;PMS5003;70568;51.378;-1.342;2023-08-12T12:31:35;3;2;
61592;PMS5003;70568;51.378;-1.342;2023-08-12T12:34:03;2;2;
61592;PMS5003;70568;51.378;-1.342;2023-08-12T12:36:31;4;3;
61592;PMS5003;70568;51.378;-1.342;2023-08-12T12:39:01;3;3;
61592;PMS5003;70568;51.378;-1.342;2023-08-12T12:41:29;6;4;
61592;PMS5003;70568;51.378;-1.342;2023-08-12T12:43:57;2;2;
61592;PMS5003;70568;51.378;-1.342;2023-08-12T12:46:24;1;0;
61592;PMS5003;70568;51.378;-1.342;2023-08-12T12:48:50;6;2;
61592;PMS5003;70568;51.378;-1.342;2023-08-12T12:51:17;4;3;
61592;PMS5003;70568;51.378;-1.342;2023-08-12T12:53:43;1;1;
61592;PMS5003;70568;51.378;-1.342;2023-08-12T12:56:09;2;2;
61592;PMS5003;70568;51.378;-1.342;2023-08-12T12:58:37;1;1;
61592;PMS5003;70568;51.378;-1.342;2023-08-12T13:01:04;3;3;
61592;PMS5003;70568;51.378;-1.342;2023-08-12T13:03:31;9;5;
61592;PMS5003;70568;51.378;-1.342;2023-08-12T13:05:58;6;4;
61592;PMS5003;70568;51.378;-1.342;2023-08-12T13:08:26;4;4;
61592;PMS5003;70568;51.378;-1.342;2023-08-12T13:10:54;5;3;
61592;PMS5003;70568;51.378;-1.342;2023-08-12T13:13:20;3;3;
61592;PMS5003;70568;51.378;-1.342;2023-08-12T13:15:46;6;4;
61592;PMS5003;70568;51.378;-1.342;2023-08-12T13:18:14;6;5;
61592;PMS5003;70568;51.378;-1.342;2023-08-12T13:20:41;6;4;
61592;PMS5003;70568;51.378;-1.342;2023-08-12T13:23:07;7;5;
61592;PMS5003;70568;51.378;-1.342;2023-08-12T13:25:34;8;6;
61592;PMS5003;70568;51.378;-1.342;2023-08-12T13:28:01;12;11;
61592;PMS5003;70568;51.378;-1.342;2023-08-12T13:30:28;6;5;
61592;PMS5003;70568;51.378;-1.342;2023-08-12T13:32:56;5;4;
61592;PMS5003;70568;51.378;-1.342;2023-08-12T13:35:23;6;4;
61592;PMS5003;70568;51.378;-1.342;2023-08-12T13:37:50;6;6;
61592;PMS5003;70568;51.378;-1.342;2023-08-12T13:40:17;7;5;
61592;PMS5003;70568;51.378;-1.342;2023-08-12T13:42:44;6;5;
61592;PMS5003;70568;51.378;-1.342;2023-08-12T13:45:11;4;4;
61592;PMS5003;70568;51.378;-1.342;2023-08-12T13:47:37;3;3;
61592;PMS5003;70568;51.378;-1.342;2023-08-12T13:50:05;4;4;
61592;PMS5003;70568;51.378;-1.342;2023-08-12T13:52:32;5;4;
61592;PMS5003;70568;51.378;-1.342;2023-08-12T13:54:59;5;4;
61592;PMS5003;70568;51.378;-1.342;2023-08-12T13:57:25;4;2;
61592;PMS5003;70568;51.378;-1.342;2023-08-12T13:59:52;5;3;
61592;PMS5003;70568;51.378;-1.342;2023-08-12T14:02:19;6;6;
61592;PMS5003;70568;51.378;-1.342;2023-08-12T14:04:46;5;4;
61592;PMS5003;70568;51.378;-1.342;2023-08-12T14:07:12;3;2;
61592;PMS5003;70568;51.378;-1.342;2023-08-12T14:09:38;5;4;
61592;PMS5003;70568;51.378;-1.342;2023-08-12T14:12:05;4;3;
61592;PMS5003;70568;51.378;-1.342;2023-08-12T14:14:32;3;3;
61592;PMS5003;70568;51.378;-1.342;2023-08-12T14:16:59;3;2;
61592;PMS5003;70568;51.378;-1.342;2023-08-12T14:19:26;5;4;
61592;PMS5003;70568;51.378;-1.342;2023-08-12T14:21:53;5;3;
61592;PMS5003;70568;51.378;-1.342;2023-08-12T14:24:20;6;4;
61592;PMS5003;70568;51.378;-1.342;2023-08-12T14:26:46;4;3;
61592;PMS5003;70568;51.378;-1.342;2023-08-12T14:29:12;3;2;
61592;PMS5003;70568;51.378;-1.342;2023-08-12T14:31:39;3;3;
61592;PMS5003;70568;51.378;-1.342;2023-08-12T14:34:05;3;3;
61592;PMS5003;70568;51.378;-1.342;2023-08-12T14:36:31;3;3;
61592;PMS5003;70568;51.378;-1.342;2023-08-12T14:38:58;3;3;
61592;PMS5003;70568;51.378;-1.342;2023-08-12T14:41:24;4;3;
61592;PMS5003;70568;51.378;-1.342;2023-08-12T14:43:50;2;2;
61592;PMS5003;70568;51.378;-1.342;2023-08-12T14:46:17;4;3;
61592;PMS5003;70568;51.378;-1.342;2023-08-12T14:48:43;3;3;
61592;PMS5003;70568;51.378;-1.342;2023-08-12T14:51:10;6;3;
61592;PMS5003;70568;51.378;-1.342;2023-08-12T14:53:36;3;2;
61592;PMS5003;70568;51.378;-1.342;2023-08-12T14:56:04;5;3;
61592;PMS5003;70568;51.378;-1.342;2023-08-12T14:58:30;3;3;
61592;PMS5003;70568;51.378;-1.342;2023-08-12T15:00:57;6;5;
61592;PMS5003;70568;51.378;-1.342;2023-08-12T15:03:23;5;3;
61592;PMS5003;70568;51.378;-1.342;2023-08-12T15:05:58;3;2;
61592;PMS5003;70568;51.378;-1.342;2023-08-12T15:08:25;3;3;
61592;PMS5003;70568;51.378;-1.342;2023-08-12T15:10:51;1;1;
61592;PMS5003;70568;51.378;-1.342;2023-08-12T15:13:17;3;3;
61592;PMS5003;70568;51.378;-1.342;2023-08-12T15:15:45;4;3;
61592;PMS5003;70568;51.378;-1.342;2023-08-12T15:18:12;4;2;
61592;PMS5003;70568;51.378;-1.342;2023-08-12T15:20:39;3;3;
61592;PMS5003;70568;51.378;-1.342;2023-08-12T15:23:06;3;3;
61592;PMS5003;70568;51.378;-1.342;2023-08-12T15:25:32;2;2;
61592;PMS5003;70568;51.378;-1.342;2023-08-12T15:27:59;8;7;
61592;PMS5003;70568;51.378;-1.342;2023-08-12T15:30:26;3;2;
61592;PMS5003;70568;51.378;-1.342;2023-08-12T15:32:55;6;5;
61592;PMS5003;70568;51.378;-1.342;2023-08-12T15:35:21;4;3;
61592;PMS5003;70568;51.378;-1.342;2023-08-12T15:37:48;3;3;
61592;PMS5003;70568;51.378;-1.342;2023-08-12T15:40:15;3;3;
61592;PMS5003;70568;51.378;-1.342;2023-08-12T15:42:42;6;3;
61592;PMS5003;70568;51.378;-1.342;2023-08-12T15:45:08;4;3;
61592;PMS5003;70568;51.378;-1.342;2023-08-12T15:47:35;3;3;
61592;PMS5003;70568;51.378;-1.342;2023-08-12T15:50:02;4;3;
61592;PMS5003;70568;51.378;-1.342;2023-08-12T15:52:29;4;4;
61592;PMS5003;70568;51.378;-1.342;2023-08-12T15:54:56;5;4;
61592;PMS5003;70568;51.378;-1.342;2023-08-12T15:57:22;4;3;
61592;PMS5003;70568;51.378;-1.342;2023-08-12T15:59:49;4;3;
61592;PMS5003;70568;51.378;-1.342;2023-08-12T16:02:15;4;4;
61592;PMS5003;70568;51.378;-1.342;2023-08-12T16:04:42;5;3;
61592;PMS5003;70568;51.378;-1.342;2023-08-12T16:07:09;4;2;
61592;PMS5003;70568;51.378;-1.342;2023-08-12T16:09:36;7;5;
61592;PMS5003;70568;51.378;-1.342;2023-08-12T16:12:02;4;4;
61592;PMS5003;70568;51.378;-1.342;2023-08-12T16:14:29;5;5;
61592;PMS5003;70568;51.378;-1.342;2023-08-12T16:16:56;3;3;
61592;PMS5003;70568;51.378;-1.342;2023-08-12T16:19:22;4;4;
61592;PMS5003;70568;51.378;-1.342;2023-08-12T16:21:49;3;3;
61592;PMS5003;70568;51.378;-1.342;2023-08-12T16:24:17;6;5;
61592;PMS5003;70568;51.378;-1.342;2023-08-12T16:26:44;7;6;
61592;PMS5003;70568;51.378;-1.342;2023-08-12T16:29:12;7;6;